CheckWX is a tool to help pilots better visualize weather data.  It is not intended as a substitute for an official pre-flight weather briefing.

17:44:51 UTC

VTCP TAF
Phrae Airport
Thailand
TAF VTCP 241700Z 2418/2518 20005KT 4000 HZ FEW025 BECMG 2500/2502 1500 BR BECMG 2504/2506 5000 HZ

Jan-24@
18:00 UTC

Jan-24 @ 18:00 UTC

Jan-25@
00:00 UTC

Jan-25 @ 00:00 UTC

TAF VTCP 241700Z 2418/2518 20005KT 4000 HZ FEW025
Wind
  • 200° at 5 KTS
Conditions
Haze
Cloud Levels
  • Few at 2,500' AGL

Jan-25@
00:00 UTC

Jan-25 @ 00:00 UTC

Jan-25@
04:00 UTC

Jan-25 @ 04:00 UTC

BECMG 2500/2502 1500 BR

Becoming

Becoming Conditions expected by Sat, Jan 25, 2020 @ 02:00 UTC

Wind
  • 200° at 5 KTS
Conditions
Mist
Cloud Levels
  • Few at 2,500' AGL

Jan-25@
04:00 UTC

Jan-25 @ 04:00 UTC

Jan-25@
18:00 UTC

Jan-25 @ 18:00 UTC

BECMG 2504/2506 5000 HZ

Becoming

Becoming Conditions expected by Sat, Jan 25, 2020 @ 06:00 UTC

Wind
  • 200° at 5 KTS
Conditions
Haze
Cloud Levels
  • Few at 2,500' AGL